Time;durP1;ratioP1;P1;durP2;ratioP2;P2;SDS_P1;SDS_P2;PMS_P1;PMS_P2;Temp;Humidity;BMP_temperature;BMP_pressure;BME280_temperature;BME280_humidity;BME280_pressure;Samples;Min_cycle;Max_cycle;Signal;HPM_P1;HPM_P2
2023/06/22 00:04:07;;;;;;;0.47;0.30;;;;;;;25.16;100.00;101902.13;10380188;28;20046;-81
2023/06/22 00:09:10;;;;;;;0.25;0.20;;;;;;;25.38;100.00;101896.44;10370182;28;20614;-80
2023/06/22 00:14:11;;;;;;;0.00;0.00;;;;;;;25.00;100.00;101896.31;10367100;28;20046;-81
2023/06/22 00:19:13;;;;;;;0.30;0.30;;;;;;;24.86;100.00;101893.91;10368638;28;20104;-81
2023/06/22 00:24:14;;;;;;;1.00;0.20;;;;;;;25.12;100.00;101887.28;10371490;28;20049;-80
2023/06/22 00:29:18;;;;;;;0.00;0.00;;;;;;;25.07;100.00;101876.84;10375947;28;20038;-83
2023/06/22 00:34:19;;;;;;;0.13;0.00;;;;;;;24.31;100.00;101872.00;10379971;28;20060;-82
2023/06/22 00:39:21;;;;;;;0.35;0.20;;;;;;;24.83;100.00;101872.91;10380554;28;20046;-81
2023/06/22 00:44:24;;;;;;;0.03;0.03;;;;;;;24.59;100.00;101875.03;10378647;28;20136;-81
2023/06/22 00:49:26;;;;;;;0.40;0.35;;;;;;;24.44;100.00;101870.03;10369951;28;20099;-81
2023/06/22 00:54:28;;;;;;;0.10;0.10;;;;;;;23.71;100.00;101889.53;10387421;28;20053;-80
2023/06/22 00:59:32;;;;;;;0.00;0.00;;;;;;;24.19;100.00;101881.84;10366804;28;20042;-80
2023/06/22 01:04:35;;;;;;;0.15;0.15;;;;;;;23.58;100.00;101875.66;10369226;28;20125;-80
2023/06/22 01:09:49;;;;;;;0.00;0.00;;;;;;;23.62;100.00;101877.38;10371642;28;20046;-81
2023/06/22 01:15:15;;;;;;;0.20;0.15;;;;;;;23.88;100.00;101863.84;10374155;28;20289;-80
2023/06/22 01:20:16;;;;;;;0.25;0.10;;;;;;;23.26;100.00;101866.44;10375212;28;20108;-81
2023/06/22 01:25:31;;;;;;;0.00;0.00;;;;;;;23.90;100.00;101863.81;10372526;28;20054;-81
2023/06/22 01:30:33;;;;;;;0.20;0.20;;;;;;;23.85;100.00;101868.28;10368987;28;20050;-80
2023/06/22 01:35:38;;;;;;;0.00;0.00;;;;;;;23.41;100.00;101858.34;10369865;28;20420;-80
2023/06/22 01:40:40;;;;;;;0.00;0.00;;;;;;;23.75;100.00;101855.25;10371580;28;20554;-80
2023/06/22 01:45:42;;;;;;;0.10;0.10;;;;;;;23.57;100.00;101863.38;10368639;28;20500;-80
2023/06/22 01:50:44;;;;;;;0.10;0.10;;;;;;;23.71;100.00;101852.69;10360352;28;20044;-80
2023/06/22 01:55:46;;;;;;;0.50;0.40;;;;;;;23.45;100.00;101854.78;10351149;28;20075;-80
2023/06/22 02:00:58;;;;;;;0.00;0.00;;;;;;;23.71;100.00;101856.22;10378700;28;20046;-81
2023/06/22 02:06:11;;;;;;;0.10;0.10;;;;;;;23.58;100.00;101855.50;10367317;28;20038;-81
2023/06/22 02:11:16;;;;;;;1.13;0.63;;;;;;;23.88;100.00;101855.06;10380005;28;20050;-80
2023/06/22 02:16:18;;;;;;;0.05;0.00;;;;;;;23.14;100.00;101856.88;10373097;28;20046;-81
2023/06/22 02:21:20;;;;;;;0.00;0.00;;;;;;;22.90;100.00;101850.13;10374095;28;20034;-81
2023/06/22 02:26:23;;;;;;;0.30;0.30;;;;;;;22.90;100.00;101842.25;10378746;28;20065;-79
2023/06/22 02:31:30;;;;;;;0.15;0.00;;;;;;;24.03;100.00;101832.97;10381500;28;20042;-81
2023/06/22 02:36:33;;;;;;;0.10;0.10;;;;;;;23.75;100.00;101844.72;10350450;28;20509;-82
2023/06/22 02:41:34;;;;;;;0.10;0.10;;;;;;;23.73;100.00;101841.25;10379224;28;20042;-81
2023/06/22 02:46:36;;;;;;;0.32;0.30;;;;;;;23.80;100.00;101835.88;10378541;28;20281;-82
2023/06/22 02:51:44;;;;;;;0.65;0.43;;;;;;;23.68;100.00;101834.34;10368576;28;20053;-81
2023/06/22 02:56:48;;;;;;;0.50;0.13;;;;;;;23.52;100.00;101841.53;10373977;28;20045;-81
2023/06/22 03:01:50;;;;;;;0.10;0.10;;;;;;;22.52;100.00;101838.25;10365912;28;20087;-81
2023/06/22 03:06:56;;;;;;;0.50;0.20;;;;;;;22.67;100.00;101840.75;10377027;28;20149;-81
2023/06/22 03:11:58;;;;;;;0.10;0.10;;;;;;;22.69;100.00;101836.34;10399042;28;20127;-81
2023/06/22 03:17:10;;;;;;;0.00;0.00;;;;;;;22.84;100.00;101842.31;10362579;28;20066;-81
2023/06/22 03:22:14;;;;;;;0.30;0.30;;;;;;;22.67;100.00;101830.25;10373056;28;20493;-80
2023/06/22 03:27:16;;;;;;;0.20;0.20;;;;;;;22.62;100.00;101834.66;10372274;28;20407;-80
2023/06/22 03:32:18;;;;;;;0.03;0.03;;;;;;;22.41;100.00;101822.59;10376360;28;20056;-81
2023/06/22 03:37:19;;;;;;;0.65;0.50;;;;;;;22.44;100.00;101826.06;10377433;28;20049;-80
2023/06/22 03:42:21;;;;;;;0.20;0.20;;;;;;;22.51;100.00;101829.50;10374950;28;20041;-81
2023/06/22 03:47:23;;;;;;;0.80;0.45;;;;;;;22.31;100.00;101824.38;10386411;28;20046;-82
2023/06/22 03:52:25;;;;;;;0.45;0.30;;;;;;;22.39;100.00;101819.13;10369858;28;20037;-82
2023/06/22 03:57:26;;;;;;;0.40;0.25;;;;;;;22.20;100.00;101808.72;10372538;28;20103;-82
2023/06/22 04:02:28;;;;;;;0.60;0.52;;;;;;;22.49;100.00;101816.41;10370610;28;20038;-81
2023/06/22 04:07:30;;;;;;;0.20;0.10;;;;;;;22.66;100.00;101810.13;10371893;28;20045;-83
2023/06/22 04:12:31;;;;;;;0.10;0.00;;;;;;;22.58;100.00;101801.44;10359588;28;20042;-80
2023/06/22 04:17:33;;;;;;;0.93;0.40;;;;;;;22.70;100.00;101819.69;10368399;28;20096;-81
2023/06/22 04:22:34;;;;;;;0.20;0.20;;;;;;;22.50;100.00;101810.25;10362011;28;20079;-80
2023/06/22 04:27:40;;;;;;;1.10;0.35;;;;;;;22.94;100.00;101809.81;10365245;28;20045;-81
2023/06/22 04:32:42;;;;;;;0.40;0.40;;;;;;;22.88;100.00;101804.63;10367631;28;20057;-81
2023/06/22 04:37:48;;;;;;;0.32;0.30;;;;;;;22.53;100.00;101800.59;10379581;28;20042;-80
2023/06/22 04:42:53;;;;;;;0.10;0.10;;;;;;;22.84;100.00;101805.53;10376224;28;20046;-82
2023/06/22 04:47:55;;;;;;;0.38;0.25;;;;;;;23.20;100.00;101801.66;10369922;28;20136;-81
2023/06/22 04:52:57;;;;;;;0.52;0.20;;;;;;;22.94;100.00;101807.19;10362153;28;20121;-82
2023/06/22 04:58:04;;;;;;;0.75;0.22;;;;;;;23.32;100.00;101798.00;10365261;28;20547;-84
2023/06/22 05:03:06;;;;;;;0.30;0.30;;;;;;;23.32;100.00;101795.34;10366516;28;20057;-81
2023/06/22 05:08:20;;;;;;;0.10;0.08;;;;;;;23.42;100.00;101794.31;10369188;28;20125;-82
2023/06/22 05:13:22;;;;;;;0.73;0.68;;;;;;;23.61;100.00;101794.94;10367339;28;20386;-81
2023/06/22 05:18:24;;;;;;;1.75;0.73;;;;;;;24.33;100.00;101794.72;10364500;28;20042;-81
2023/06/22 05:23:25;;;;;;;1.05;0.93;;;;;;;24.43;100.00;101799.81;10358261;28;20050;-82
2023/06/22 05:28:27;;;;;;;0.73;0.43;;;;;;;24.18;100.00;101801.13;10360499;28;20563;-81
2023/06/22 05:33:28;;;;;;;0.75;0.57;;;;;;;24.64;100.00;101795.94;10363497;28;20046;-82
2023/06/22 05:38:30;;;;;;;2.00;0.93;;;;;;;24.56;100.00;101801.31;10360311;28;20100;-82
2023/06/22 05:43:32;;;;;;;1.95;0.88;;;;;;;24.42;100.00;101792.81;10367520;28;20046;-82
2023/06/22 05:48:34;;;;;;;0.50;0.40;;;;;;;24.69;100.00;101797.59;10362997;28;20046;-81
2023/06/22 05:53:35;;;;;;;0.75;0.68;;;;;;;24.80;100.00;101809.69;10363611;28;20052;-80
2023/06/22 05:58:37;;;;;;;0.73;0.43;;;;;;;24.57;100.00;101813.59;10369923;28;20050;-80
2023/06/22 06:03:41;;;;;;;1.15;0.93;;;;;;;25.14;100.00;101815.16;10372552;28;20042;-81
2023/06/22 06:08:42;;;;;;;0.90;0.63;;;;;;;24.80;100.00;101820.25;10380811;28;20034;-80
2023/06/22 06:13:45;;;;;;;0.65;0.50;;;;;;;25.53;100.00;101809.09;10365412;28;20133;-81
2023/06/22 06:18:48;;;;;;;0.43;0.32;;;;;;;25.20;100.00;101806.28;10373557;28;20493;-81
2023/06/22 06:23:50;;;;;;;0.50;0.50;;;;;;;25.59;100.00;101801.03;10381715;28;20041;-81
2023/06/22 06:28:51;;;;;;;1.38;0.93;;;;;;;25.68;100.00;101799.09;10367510;28;20045;-80
2023/06/22 06:33:53;;;;;;;0.90;0.63;;;;;;;25.77;100.00;101799.72;10345249;28;20050;-80
2023/06/22 06:38:55;;;;;;;0.40;0.28;;;;;;;25.70;100.00;101792.00;10371189;28;20029;-80
2023/06/22 06:43:57;;;;;;;0.57;0.38;;;;;;;26.16;100.00;101790.91;10369517;28;20657;-83
2023/06/22 06:48:58;;;;;;;1.30;0.82;;;;;;;26.22;100.00;101788.13;10373741;28;20070;-81
2023/06/22 06:54:00;;;;;;;1.23;0.45;;;;;;;26.73;100.00;101786.72;10368559;28;20053;-82
2023/06/22 06:59:01;;;;;;;0.95;0.68;;;;;;;26.58;100.00;101788.03;10363564;28;20105;-80
2023/06/22 07:04:03;;;;;;;0.20;0.20;;;;;;;26.46;100.00;101788.38;10367811;28;21829;-81
2023/06/22 07:09:05;;;;;;;0.85;0.65;;;;;;;26.44;100.00;101774.34;10372970;28;20069;-81
2023/06/22 07:14:06;;;;;;;1.02;0.30;;;;;;;26.72;100.00;101770.91;10369632;28;20053;-81
2023/06/22 07:19:08;;;;;;;1.27;0.60;;;;;;;26.51;100.00;101767.97;10369215;28;20464;-81
2023/06/22 07:24:10;;;;;;;0.65;0.52;;;;;;;26.53;100.00;101760.00;10382183;28;20133;-80
2023/06/22 07:29:12;;;;;;;3.35;1.00;;;;;;;26.69;100.00;101755.16;10382254;28;20041;-82
2023/06/22 07:34:14;;;;;;;0.45;0.30;;;;;;;26.50;100.00;101758.31;10368147;28;20527;-81
2023/06/22 07:39:15;;;;;;;0.93;0.63;;;;;;;26.86;100.00;101754.72;10373651;28;20041;-81
2023/06/22 07:44:17;;;;;;;0.13;0.13;;;;;;;27.88;100.00;101756.00;10372097;28;20052;-82
2023/06/22 07:49:18;;;;;;;0.70;0.35;;;;;;;26.86;100.00;101749.41;10369817;28;20108;-78
2023/06/22 07:54:20;;;;;;;0.65;0.38;;;;;;;27.26;100.00;101742.06;10374595;28;20049;-79
2023/06/22 07:59:21;;;;;;;0.63;0.60;;;;;;;27.88;100.00;101740.13;10372813;28;20049;-81
2023/06/22 08:04:23;;;;;;;0.65;0.50;;;;;;;28.42;100.00;101747.06;10384570;28;20191;-80
2023/06/22 08:09:24;;;;;;;0.95;0.22;;;;;;;28.02;100.00;101748.44;10362293;28;20623;-82
2023/06/22 08:14:26;;;;;;;0.25;0.20;;;;;;;28.07;100.00;101751.84;10357527;28;20423;-81
2023/06/22 08:19:28;;;;;;;0.20;0.20;;;;;;;27.77;100.00;101738.69;10360555;28;20705;-80
2023/06/22 08:24:30;;;;;;;1.98;0.75;;;;;;;27.85;100.00;101731.34;10355598;28;20046;-80
2023/06/22 08:29:32;;;;;;;0.65;0.47;;;;;;;27.99;100.00;101722.94;10389394;28;20385;-81
2023/06/22 08:34:34;;;;;;;0.30;0.30;;;;;;;28.32;100.00;101708.59;10373797;28;20390;-80
2023/06/22 08:39:36;;;;;;;0.40;0.32;;;;;;;28.63;100.00;101703.00;10378266;28;20038;-80
2023/06/22 08:44:37;;;;;;;0.65;0.35;;;;;;;28.39;100.00;101685.38;10357581;28;20121;-80
2023/06/22 08:49:39;;;;;;;0.65;0.50;;;;;;;29.74;100.00;101687.16;10347485;28;20042;-82
2023/06/22 08:54:40;;;;;;;0.70;0.50;;;;;;;29.37;100.00;101682.53;10354617;28;20069;-81
2023/06/22 08:59:42;;;;;;;0.73;0.60;;;;;;;29.41;100.00;101690.31;10359964;28;20038;-80
2023/06/22 09:04:45;;;;;;;0.30;0.30;;;;;;;29.15;100.00;101683.38;10373543;28;20046;-79
2023/06/22 09:09:47;;;;;;;0.20;0.10;;;;;;;29.12;100.00;101673.75;10370224;28;20460;-79
2023/06/22 09:14:48;;;;;;;1.85;0.35;;;;;;;28.96;100.00;101662.03;10364674;28;20041;-80
2023/06/22 09:19:50;;;;;;;0.32;0.28;;;;;;;29.09;100.00;101657.94;10375543;28;20099;-81
2023/06/22 09:24:51;;;;;;;0.28;0.28;;;;;;;29.78;100.00;101664.00;10363693;28;20422;-79
2023/06/22 09:29:53;;;;;;;0.73;0.30;;;;;;;29.02;100.00;101672.38;10353651;28;20026;-80
2023/06/22 09:34:54;;;;;;;2.53;0.77;;;;;;;29.36;100.00;101665.75;10359100;28;20465;-79
2023/06/22 09:39:56;;;;;;;0.43;0.43;;;;;;;29.29;100.00;101657.13;10356125;28;20046;-79
2023/06/22 09:44:57;;;;;;;1.15;0.60;;;;;;;28.80;100.00;101659.97;10351547;28;20049;-80
2023/06/22 09:49:59;;;;;;;0.73;0.60;;;;;;;29.00;100.00;101647.72;10365977;28;20100;-80
2023/06/22 09:55:03;;;;;;;0.55;0.30;;;;;;;29.19;100.00;101641.66;10376893;28;20061;-79
2023/06/22 10:00:08;;;;;;;0.30;0.30;;;;;;;29.47;100.00;101652.03;10353636;28;20049;-80
2023/06/22 10:05:10;;;;;;;0.88;0.52;;;;;;;29.45;100.00;101656.53;10364112;28;20760;-82
2023/06/22 10:10:13;;;;;;;0.85;0.40;;;;;;;29.22;100.00;101663.63;10361705;28;20096;-80
2023/06/22 10:15:15;;;;;;;0.10;0.10;;;;;;;28.93;100.00;101651.56;10355784;28;20097;-79
2023/06/22 10:20:18;;;;;;;0.28;0.20;;;;;;;28.83;100.00;101647.53;10370753;28;20613;-80
2023/06/22 10:25:20;;;;;;;2.35;0.60;;;;;;;28.64;100.00;101661.44;10356038;28;20434;-80
2023/06/22 10:30:21;;;;;;;0.10;0.10;;;;;;;29.46;100.00;101638.81;10361509;28;20041;-80
2023/06/22 10:35:23;;;;;;;1.20;0.65;;;;;;;28.65;100.00;101640.19;10360082;28;20088;-78
2023/06/22 10:40:24;;;;;;;0.43;0.32;;;;;;;29.07;100.00;101637.72;10357855;28;20047;-80
2023/06/22 10:45:27;;;;;;;0.73;0.35;;;;;;;28.73;100.00;101639.91;10363664;28;20042;-79
2023/06/22 10:50:29;;;;;;;0.60;0.57;;;;;;;28.99;100.00;101627.44;10385011;28;20045;-82
2023/06/22 10:55:31;;;;;;;0.25;0.22;;;;;;;28.38;100.00;101636.81;10372498;28;20093;-80
2023/06/22 11:00:51;;;;;;;0.15;0.15;;;;;;;28.49;100.00;101621.34;10368643;28;20088;-81
2023/06/22 11:05:53;;;;;;;0.57;0.32;;;;;;;28.91;100.00;101605.66;10366942;28;20046;-82
2023/06/22 11:10:55;;;;;;;0.55;0.20;;;;;;;28.90;100.00;101596.81;10368195;28;20038;-79
2023/06/22 11:15:56;;;;;;;0.40;0.40;;;;;;;28.79;100.00;101596.41;10358958;28;20101;-79
2023/06/22 11:20:58;;;;;;;0.60;0.50;;;;;;;28.95;100.00;101586.03;10356633;28;20542;-81
2023/06/22 11:25:59;;;;;;;0.57;0.35;;;;;;;28.59;100.00;101589.19;10373629;28;20069;-80
2023/06/22 11:31:01;;;;;;;0.22;0.15;;;;;;;28.81;100.00;101583.94;10383502;28;20555;-80
2023/06/22 11:36:17;;;;;;;0.57;0.30;;;;;;;28.15;100.00;101595.25;10367285;28;20060;-80
2023/06/22 11:41:18;;;;;;;0.10;0.10;;;;;;;28.42;100.00;101588.06;10356423;28;20038;-80
2023/06/22 11:46:20;;;;;;;0.85;0.20;;;;;;;28.76;100.00;101578.84;10368792;28;20133;-82
2023/06/22 11:51:22;;;;;;;0.32;0.32;;;;;;;28.61;100.00;101587.34;10365294;28;20448;-80
2023/06/22 11:56:23;;;;;;;0.10;0.10;;;;;;;28.86;100.00;101587.28;10368168;28;20046;-80
2023/06/22 12:01:25;;;;;;;0.20;0.20;;;;;;;28.39;100.00;101603.22;10379486;28;20505;-81
2023/06/22 12:06:26;;;;;;;0.10;0.10;;;;;;;27.94;100.00;101597.75;10366374;28;20049;-81
2023/06/22 12:11:28;;;;;;;0.15;0.13;;;;;;;28.36;100.00;101598.91;10373510;28;20037;-79
2023/06/22 12:16:29;;;;;;;0.35;0.35;;;;;;;28.17;100.00;101604.91;10373162;28;20058;-79
2023/06/22 12:21:31;;;;;;;0.35;0.30;;;;;;;28.01;100.00;101603.69;10363979;28;20077;-80
2023/06/22 12:26:33;;;;;;;0.10;0.10;;;;;;;27.86;100.00;101598.03;10364275;28;20120;-80
2023/06/22 12:31:36;;;;;;;0.63;0.30;;;;;;;27.44;100.00;101601.25;10363696;28;20042;-80
2023/06/22 12:36:38;;;;;;;0.15;0.10;;;;;;;27.63;100.00;101598.84;10370720;28;20571;-80
2023/06/22 12:41:40;;;;;;;0.10;0.10;;;;;;;27.13;100.00;101599.63;10359255;28;20082;-80
2023/06/22 12:46:41;;;;;;;0.30;0.30;;;;;;;25.47;100.00;101614.03;10379618;28;20049;-82
2023/06/22 12:51:44;;;;;;;0.30;0.30;;;;;;;25.11;100.00;101614.00;10363242;28;20869;-80
2023/06/22 12:56:45;;;;;;;0.70;0.28;;;;;;;38.20;100.00;101805.53;10369334;28;20045;-80
2023/06/22 13:01:47;;;;;;;0.73;0.47;;;;;;;48.67;100.00;72722.38;10363747;28;20052;-79
2023/06/22 13:06:49;;;;;;;0.52;0.38;;;;;;;-146.30;100.00;58188.94;10382224;28;20127;-79
2023/06/22 13:11:52;;;;;;;1.50;0.32;;;;;;;-146.30;100.00;36827.28;10375058;28;20060;-80
2023/06/22 13:16:54;;;;;;;1.17;0.80;;;;;;;51.54;100.00;135589.75;10372422;28;20412;-80
2023/06/22 13:21:55;;;;;;;1.45;0.60;;;;;;;52.71;100.00;141620.44;10368163;28;20045;-80
2023/06/22 13:26:57;;;;;;;0.40;0.40;;;;;;;51.67;100.00;156007.84;10368281;28;20432;-80
2023/06/22 13:32:00;;;;;;;0.30;0.30;;;;;;;-146.30;87.89;58188.94;10359158;28;20105;-80
2023/06/22 13:37:01;;;;;;;0.82;0.47;;;;;;;56.21;100.00;157132.53;10365332;28;20042;-81
2023/06/22 13:42:03;;;;;;;0.30;0.30;;;;;;;29.60;100.00;150558.28;10363451;28;20046;-78
2023/06/22 13:47:05;;;;;;;0.35;0.35;;;;;;;28.74;100.00;149084.25;10363395;28;20731;-80
2023/06/22 13:52:10;;;;;;;0.77;0.57;;;;;;;29.65;100.00;145863.41;10370883;28;20046;-79
2023/06/22 13:57:11;;;;;;;0.47;0.40;;;;;;;28.31;100.00;102586.63;10361667;28;20647;-82
2023/06/22 14:02:13;;;;;;;0.60;0.40;;;;;;;28.30;100.00;101972.75;10363862;28;20504;-81
2023/06/22 14:07:15;;;;;;;1.20;0.82;;;;;;;27.82;100.00;101419.03;10364048;28;20068;-81
2023/06/22 14:12:19;;;;;;;0.57;0.57;;;;;;;27.76;100.00;101419.25;10360908;28;20042;-83
2023/06/22 14:17:25;;;;;;;0.90;0.68;;;;;;;27.50;100.00;101418.47;10359323;28;20081;-80
2023/06/22 14:22:29;;;;;;;1.65;1.00;;;;;;;28.25;100.00;101402.41;10374123;28;20587;-81
2023/06/22 14:27:30;;;;;;;1.10;0.80;;;;;;;27.98;100.00;101402.53;10376286;28;20050;-81
2023/06/22 14:32:32;;;;;;;1.30;0.57;;;;;;;27.69;100.00;101408.06;10381664;28;20046;-81
2023/06/22 14:37:33;;;;;;;1.00;0.90;;;;;;;28.65;100.00;101398.97;10375205;28;20139;-82
2023/06/22 14:42:35;;;;;;;1.50;0.52;;;;;;;28.92;100.00;101409.31;10375396;28;20088;-81
2023/06/22 14:47:36;;;;;;;0.73;0.57;;;;;;;28.75;100.00;101388.84;10369843;28;20524;-84
2023/06/22 14:52:38;;;;;;;0.95;0.70;;;;;;;28.58;100.00;101396.63;10365630;28;20053;-82
2023/06/22 14:57:39;;;;;;;0.80;0.80;;;;;;;28.65;100.00;101398.09;10376887;28;20058;-81
2023/06/22 15:02:41;;;;;;;0.77;0.73;;;;;;;28.75;100.00;101378.25;10375912;28;20041;-82
2023/06/22 15:07:43;;;;;;;0.40;0.40;;;;;;;28.58;100.00;101356.88;10366303;28;20131;-82
2023/06/22 15:12:44;;;;;;;2.63;0.98;;;;;;;27.59;100.00;101374.06;10371456;28;20456;-83
2023/06/22 15:17:46;;;;;;;1.23;0.50;;;;;;;27.32;100.00;101375.03;10387194;28;20073;-81
2023/06/22 15:22:47;;;;;;;1.48;1.25;;;;;;;27.16;100.00;101345.63;10378156;28;20072;-82
2023/06/22 15:27:49;;;;;;;1.20;0.85;;;;;;;26.87;100.00;101344.91;10384018;28;20049;-80
2023/06/22 15:32:50;;;;;;;1.42;0.95;;;;;;;26.69;100.00;101329.66;10385942;28;20467;-84
2023/06/22 15:37:52;;;;;;;0.95;0.63;;;;;;;26.82;100.00;101325.69;10374508;28;20096;-83
2023/06/22 15:42:54;;;;;;;1.23;0.55;;;;;;;26.71;100.00;101327.81;10370257;28;20536;-83
2023/06/22 15:47:56;;;;;;;0.75;0.50;;;;;;;26.67;100.00;101336.78;10375914;28;20111;-82
2023/06/22 15:52:57;;;;;;;2.08;1.52;;;;;;;27.14;100.00;101326.31;10377421;28;20528;-82
2023/06/22 15:57:59;;;;;;;1.30;0.60;;;;;;;26.54;100.00;101339.84;10372229;28;20042;-81
2023/06/22 16:03:01;;;;;;;1.40;0.85;;;;;;;26.54;100.00;101325.75;10361959;28;20049;-81
2023/06/22 16:08:02;;;;;;;0.98;0.63;;;;;;;26.19;100.00;101294.34;10369132;28;20045;-81
2023/06/22 16:13:04;;;;;;;4.38;1.70;;;;;;;26.21;100.00;101258.19;10369800;28;20067;-82
2023/06/22 16:18:07;;;;;;;0.65;0.60;;;;;;;26.58;100.00;101280.69;10367338;28;21445;-82
2023/06/22 16:23:09;;;;;;;1.67;0.77;;;;;;;26.41;100.00;101313.00;10371267;28;20034;-85
2023/06/22 16:28:11;;;;;;;0.93;0.57;;;;;;;26.64;100.00;101321.91;10380386;28;20049;-83
2023/06/22 16:33:12;;;;;;;1.98;1.23;;;;;;;26.25;100.00;101327.63;10392844;28;20042;-83
2023/06/22 16:38:14;;;;;;;0.65;0.65;;;;;;;26.37;100.00;101335.13;10364304;28;20054;-82
2023/06/22 16:43:15;;;;;;;0.88;0.63;;;;;;;25.95;100.00;101344.34;10367681;28;20053;-84
2023/06/22 16:48:17;;;;;;;4.07;1.17;;;;;;;25.80;100.00;101360.72;10374029;28;20068;-83
2023/06/22 16:53:20;;;;;;;1.08;0.82;;;;;;;26.25;100.00;101378.66;10374260;28;20092;-85
2023/06/22 16:58:23;;;;;;;1.05;0.95;;;;;;;25.94;100.00;101381.38;10357441;28;20050;-83
2023/06/22 17:03:29;;;;;;;2.33;1.10;;;;;;;25.93;100.00;101383.16;10369010;28;20037;-82
2023/06/22 17:08:33;;;;;;;0.77;0.57;;;;;;;26.33;100.00;101388.97;10346286;28;20080;-82
2023/06/22 17:13:35;;;;;;;2.65;0.98;;;;;;;26.38;100.00;101373.84;10368682;28;20037;-84
2023/06/22 17:18:38;;;;;;;0.38;0.30;;;;;;;25.56;100.00;101367.56;10368965;28;20037;-84
2023/06/22 17:23:40;;;;;;;0.93;0.70;;;;;;;25.22;100.00;101348.28;10373458;28;20037;-83
2023/06/22 17:28:53;;;;;;;15.50;1.17;;;;;;;25.22;100.00;101343.00;10370441;28;20045;-83
2023/06/22 17:33:55;;;;;;;1.10;1.02;;;;;;;25.42;100.00;101328.44;10372905;28;20041;-84
2023/06/22 17:39:00;;;;;;;2.40;1.20;;;;;;;24.96;100.00;101326.16;10372054;28;20053;-83
2023/06/22 17:44:04;;;;;;;0.55;0.45;;;;;;;24.93;100.00;101289.34;10370600;28;20103;-85
2023/06/22 17:49:10;;;;;;;1.17;0.93;;;;;;;25.12;100.00;101300.22;10371596;28;20053;-84
2023/06/22 17:54:12;;;;;;;3.97;1.85;;;;;;;25.18;100.00;101296.56;10378405;28;20042;-84
2023/06/22 17:59:14;;;;;;;1.33;1.08;;;;;;;24.38;100.00;101310.97;10370992;28;20046;-85
2023/06/22 18:04:18;;;;;;;1.48;1.15;;;;;;;24.82;100.00;101315.13;10374572;28;20501;-84
2023/06/22 18:09:20;;;;;;;2.78;0.82;;;;;;;25.11;100.00;101318.72;10380896;28;20479;-86
2023/06/22 18:14:22;;;;;;;0.95;0.50;;;;;;;23.74;100.00;101334.41;10368814;28;20516;-84
2023/06/22 18:19:23;;;;;;;0.47;0.47;;;;;;;23.29;100.00;101340.59;10370800;28;20049;-84
2023/06/22 18:24:26;;;;;;;1.15;0.82;;;;;;;23.61;100.00;101336.44;10355102;28;20046;-85
2023/06/22 18:29:29;;;;;;;0.65;0.52;;;;;;;23.66;100.00;101358.22;10370532;28;20772;-86
2023/06/22 18:34:31;;;;;;;2.83;0.60;;;;;;;23.79;100.00;101371.13;10355049;28;20046;-88
2023/06/22 18:39:34;;;;;;;1.33;0.93;;;;;;;24.31;100.00;101364.66;10367150;28;20436;-86
2023/06/22 18:44:40;;;;;;;0.75;0.40;;;;;;;24.71;100.00;101354.94;10364986;28;20052;-86
2023/06/22 18:49:42;;;;;;;1.70;1.20;;;;;;;24.50;100.00;101374.75;10370280;28;20404;-85
2023/06/22 18:54:50;;;;;;;1.50;1.20;;;;;;;24.68;100.00;101369.06;10364847;28;20073;-86
2023/06/22 19:00:09;;;;;;;0.77;0.70;;;;;;;24.62;100.00;101366.53;10369519;28;20042;-86
2023/06/22 19:05:11;;;;;;;1.93;0.90;;;;;;;24.72;100.00;101361.94;10365278;28;20073;-87
2023/06/22 19:10:26;;;;;;;0.43;0.43;;;;;;;24.01;100.00;101350.47;10367388;28;20133;-86
2023/06/22 19:15:34;;;;;;;1.48;1.27;;;;;;;24.08;100.00;101360.84;10372285;28;20267;-86
2023/06/22 19:20:35;;;;;;;0.30;0.30;;;;;;;23.92;100.00;101364.69;10375217;28;20136;-86
2023/06/22 19:25:45;;;;;;;1.42;1.08;;;;;;;23.52;100.00;101368.19;10364299;28;20559;-87
2023/06/22 19:30:47;;;;;;;1.42;0.70;;;;;;;23.56;100.00;101383.00;10368758;28;20057;-85
2023/06/22 19:35:50;;;;;;;2.58;0.60;;;;;;;23.37;100.00;101383.38;10361054;28;20049;-87
2023/06/22 19:40:52;;;;;;;0.17;0.17;;;;;;;23.09;100.00;101378.63;10374873;28;20490;-87
2023/06/22 19:45:53;;;;;;;1.83;0.65;;;;;;;22.69;100.00;101381.97;10363637;28;20042;-88
2023/06/22 19:51:01;;;;;;;1.35;0.50;;;;;;;22.60;100.00;101388.25;10368004;28;20053;-87
2023/06/22 19:56:04;;;;;;;0.40;0.40;;;;;;;22.82;100.00;101393.13;10366397;28;20058;-87
2023/06/22 20:01:06;;;;;;;0.08;0.08;;;;;;;22.65;100.00;101396.03;10366737;28;20053;-87
2023/06/22 20:06:13;;;;;;;0.17;0.15;;;;;;;22.77;100.00;101410.72;10360275;28;20049;-86
2023/06/22 20:11:28;;;;;;;2.78;0.85;;;;;;;23.06;100.00;101402.31;10355168;28;20038;-86
2023/06/22 20:16:30;;;;;;;0.50;0.28;;;;;;;22.85;100.00;101410.59;10366112;28;20054;-87
2023/06/22 20:21:32;;;;;;;0.43;0.43;;;;;;;22.84;100.00;101415.00;10356854;28;20147;-86
2023/06/22 20:26:44;;;;;;;0.80;0.55;;;;;;;22.36;100.00;101413.09;10367588;28;20053;-86
2023/06/22 20:31:46;;;;;;;0.88;0.68;;;;;;;22.71;100.00;101416.94;10352517;28;20042;-85
2023/06/22 20:36:47;;;;;;;0.35;0.35;;;;;;;22.90;100.00;101427.13;10346642;28;20472;-84
2023/06/22 20:41:49;;;;;;;0.50;0.30;;;;;;;22.95;100.00;101428.78;10363297;28;20075;-83
2023/06/22 20:46:50;;;;;;;0.63;0.30;;;;;;;23.07;100.00;101440.84;10373871;28;20046;-81
2023/06/22 20:51:52;;;;;;;0.40;0.35;;;;;;;22.54;100.00;101455.72;10370269;28;20050;-83
2023/06/22 20:56:54;;;;;;;0.30;0.30;;;;;;;22.66;100.00;101459.03;10372023;28;20041;-85
2023/06/22 21:01:56;;;;;;;1.33;0.57;;;;;;;22.53;100.00;101469.75;10363283;28;20508;-84
2023/06/22 21:06:57;;;;;;;0.90;0.38;;;;;;;22.60;100.00;101466.16;10364565;28;20089;-84
2023/06/22 21:11:59;;;;;;;0.22;0.22;;;;;;;22.29;100.00;101484.94;10364631;28;20481;-86
2023/06/22 21:17:00;;;;;;;0.40;0.40;;;;;;;22.54;100.00;101492.50;10365060;28;20053;-85
2023/06/22 21:22:02;;;;;;;1.88;0.85;;;;;;;22.31;100.00;101501.53;10338003;28;20452;-83
2023/06/22 21:27:04;;;;;;;0.20;0.17;;;;;;;22.25;100.00;101497.25;10355805;28;20396;-84
2023/06/22 21:32:06;;;;;;;0.45;0.25;;;;;;;22.26;100.00;101500.72;10364585;28;20044;-85
2023/06/22 21:37:07;;;;;;;0.10;0.10;;;;;;;22.77;100.00;101505.28;10357350;28;20050;-85
2023/06/22 21:42:09;;;;;;;0.57;0.57;;;;;;;22.40;100.00;101497.97;10353935;28;20054;-84
2023/06/22 21:47:11;;;;;;;0.13;0.13;;;;;;;22.61;100.00;101505.53;10366222;28;20042;-84
2023/06/22 21:52:13;;;;;;;0.45;0.28;;;;;;;22.17;100.00;101502.59;10370774;28;20034;-83
2023/06/22 21:57:14;;;;;;;0.85;0.35;;;;;;;22.31;100.00;101506.78;10359996;28;20050;-84
2023/06/22 22:02:16;;;;;;;0.57;0.40;;;;;;;22.52;100.00;101510.06;10365003;28;20049;-84
2023/06/22 22:07:18;;;;;;;0.38;0.38;;;;;;;22.81;100.00;101506.97;10369823;28;20057;-85
2023/06/22 22:12:20;;;;;;;1.30;0.65;;;;;;;22.70;100.00;101512.38;10368653;28;20061;-83
2023/06/22 22:17:22;;;;;;;1.65;0.98;;;;;;;23.36;100.00;101518.34;10363587;28;20041;-84
2023/06/22 22:22:24;;;;;;;0.75;0.30;;;;;;;23.12;100.00;101536.22;10367833;28;20042;-86
2023/06/22 22:27:25;;;;;;;0.45;0.38;;;;;;;23.14;100.00;101531.81;10366941;28;20417;-85
2023/06/22 22:32:27;;;;;;;0.45;0.35;;;;;;;22.68;100.00;101558.81;10356236;28;20049;-82
2023/06/22 22:37:29;;;;;;;0.20;0.15;;;;;;;23.30;100.00;101568.41;10369200;28;20590;-83
2023/06/22 22:42:32;;;;;;;1.08;0.55;;;;;;;23.16;100.00;101565.09;10360172;28;20045;-85
2023/06/22 22:47:34;;;;;;;0.98;0.85;;;;;;;22.68;100.00;101569.31;10375230;28;20052;-85
2023/06/22 22:52:37;;;;;;;0.45;0.35;;;;;;;22.89;100.00;101564.66;10363396;28;20038;-82
2023/06/22 22:57:39;;;;;;;0.25;0.22;;;;;;;22.53;100.00;101572.16;10373668;28;20045;-82